sensor_id;sensor_type;location;lat;lon;timestamp;P1;durP1;ratioP1;P2;durP2;ratioP2
24555;SDS011;12725;49.440;10.954;2023-05-10T00:00:56;3.85;;;2.85;;
24555;SDS011;12725;49.440;10.954;2023-05-10T00:04:57;4.05;;;3.28;;
24555;SDS011;12725;49.440;10.954;2023-05-10T00:08:57;3.70;;;2.80;;
24555;SDS011;12725;49.440;10.954;2023-05-10T00:12:57;4.18;;;2.78;;
24555;SDS011;12725;49.440;10.954;2023-05-10T00:16:58;6.78;;;3.58;;
24555;SDS011;12725;49.440;10.954;2023-05-10T00:20:58;3.37;;;2.60;;
24555;SDS011;12725;49.440;10.954;2023-05-10T00:24:59;3.70;;;2.50;;
24555;SDS011;12725;49.440;10.954;2023-05-10T00:28:59;4.05;;;3.47;;
24555;SDS011;12725;49.440;10.954;2023-05-10T00:32:59;5.25;;;3.33;;
24555;SDS011;12725;49.440;10.954;2023-05-10T00:37:00;3.67;;;2.72;;
24555;SDS011;12725;49.440;10.954;2023-05-10T00:41:00;10.20;;;4.57;;
24555;SDS011;12725;49.440;10.954;2023-05-10T00:45:01;4.83;;;2.53;;
24555;SDS011;12725;49.440;10.954;2023-05-10T00:49:04;3.50;;;2.75;;
24555;SDS011;12725;49.440;10.954;2023-05-10T00:53:05;4.30;;;2.72;;
24555;SDS011;12725;49.440;10.954;2023-05-10T00:57:06;4.93;;;2.95;;
24555;SDS011;12725;49.440;10.954;2023-05-10T01:01:06;3.67;;;2.85;;
24555;SDS011;12725;49.440;10.954;2023-05-10T01:05:07;3.00;;;2.50;;
24555;SDS011;12725;49.440;10.954;2023-05-10T01:09:07;7.60;;;3.45;;
24555;SDS011;12725;49.440;10.954;2023-05-10T01:13:08;4.45;;;3.40;;
24555;SDS011;12725;49.440;10.954;2023-05-10T01:17:09;6.22;;;2.88;;
24555;SDS011;12725;49.440;10.954;2023-05-10T01:21:14;4.47;;;3.08;;
24555;SDS011;12725;49.440;10.954;2023-05-10T01:34:23;4.47;;;2.63;;
24555;SDS011;12725;49.440;10.954;2023-05-10T01:38:44;5.45;;;2.97;;
24555;SDS011;12725;49.440;10.954;2023-05-10T01:42:54;5.05;;;2.88;;
24555;SDS011;12725;49.440;10.954;2023-05-10T01:47:17;3.83;;;2.75;;
24555;SDS011;12725;49.440;10.954;2023-05-10T01:51:26;4.47;;;2.72;;
24555;SDS011;12725;49.440;10.954;2023-05-10T01:55:30;4.93;;;2.88;;
24555;SDS011;12725;49.440;10.954;2023-05-10T01:59:34;3.75;;;2.58;;
24555;SDS011;12725;49.440;10.954;2023-05-10T02:03:40;4.30;;;2.00;;
24555;SDS011;12725;49.440;10.954;2023-05-10T02:07:42;5.00;;;2.67;;
24555;SDS011;12725;49.440;10.954;2023-05-10T02:11:43;5.60;;;2.88;;
24555;SDS011;12725;49.440;10.954;2023-05-10T02:15:45;3.53;;;2.70;;
24555;SDS011;12725;49.440;10.954;2023-05-10T02:19:47;3.38;;;2.20;;
24555;SDS011;12725;49.440;10.954;2023-05-10T02:23:48;4.50;;;1.90;;
24555;SDS011;12725;49.440;10.954;2023-05-10T02:27:50;3.75;;;2.00;;
24555;SDS011;12725;49.440;10.954;2023-05-10T02:31:52;3.17;;;2.05;;
24555;SDS011;12725;49.440;10.954;2023-05-10T02:35:53;2.95;;;2.08;;
24555;SDS011;12725;49.440;10.954;2023-05-10T02:39:55;2.53;;;1.90;;
24555;SDS011;12725;49.440;10.954;2023-05-10T02:43:56;3.00;;;2.53;;
24555;SDS011;12725;49.440;10.954;2023-05-10T02:47:58;2.58;;;1.77;;
24555;SDS011;12725;49.440;10.954;2023-05-10T02:52:00;3.15;;;2.35;;
24555;SDS011;12725;49.440;10.954;2023-05-10T02:56:04;3.80;;;2.25;;
24555;SDS011;12725;49.440;10.954;2023-05-10T03:00:07;2.78;;;1.83;;
24555;SDS011;12725;49.440;10.954;2023-05-10T03:04:08;1.23;;;1.10;;
24555;SDS011;12725;49.440;10.954;2023-05-10T03:08:08;2.00;;;1.63;;
24555;SDS011;12725;49.440;10.954;2023-05-10T03:16:22;1.20;;;0.95;;
24555;SDS011;12725;49.440;10.954;2023-05-10T03:20:26;1.08;;;0.80;;
24555;SDS011;12725;49.440;10.954;2023-05-10T03:24:29;1.02;;;0.88;;
24555;SDS011;12725;49.440;10.954;2023-05-10T03:28:30;0.80;;;0.80;;
24555;SDS011;12725;49.440;10.954;2023-05-10T03:32:31;0.45;;;0.45;;
24555;SDS011;12725;49.440;10.954;2023-05-10T03:36:34;0.40;;;0.40;;
24555;SDS011;12725;49.440;10.954;2023-05-10T03:40:35;3.20;;;0.80;;
24555;SDS011;12725;49.440;10.954;2023-05-10T03:44:35;0.50;;;0.50;;
24555;SDS011;12725;49.440;10.954;2023-05-10T03:48:35;0.80;;;0.80;;
24555;SDS011;12725;49.440;10.954;2023-05-10T03:52:36;0.60;;;0.60;;
24555;SDS011;12725;49.440;10.954;2023-05-10T03:56:39;0.43;;;0.43;;
24555;SDS011;12725;49.440;10.954;2023-05-10T04:00:39;0.50;;;0.50;;
24555;SDS011;12725;49.440;10.954;2023-05-10T04:04:46;0.77;;;0.60;;
24555;SDS011;12725;49.440;10.954;2023-05-10T04:08:46;0.95;;;0.55;;
24555;SDS011;12725;49.440;10.954;2023-05-10T04:12:46;0.50;;;0.50;;
24555;SDS011;12725;49.440;10.954;2023-05-10T04:16:47;0.40;;;0.40;;
24555;SDS011;12725;49.440;10.954;2023-05-10T04:20:47;0.50;;;0.50;;
24555;SDS011;12725;49.440;10.954;2023-05-10T04:24:47;1.50;;;0.77;;
24555;SDS011;12725;49.440;10.954;2023-05-10T04:28:48;0.40;;;0.40;;
24555;SDS011;12725;49.440;10.954;2023-05-10T04:32:48;0.60;;;0.60;;
24555;SDS011;12725;49.440;10.954;2023-05-10T04:36:48;0.70;;;0.70;;
24555;SDS011;12725;49.440;10.954;2023-05-10T04:40:49;0.40;;;0.40;;
24555;SDS011;12725;49.440;10.954;2023-05-10T04:44:49;0.63;;;0.63;;
24555;SDS011;12725;49.440;10.954;2023-05-10T04:48:49;0.57;;;0.55;;
24555;SDS011;12725;49.440;10.954;2023-05-10T04:52:50;0.68;;;0.60;;
24555;SDS011;12725;49.440;10.954;2023-05-10T04:56:51;0.60;;;0.60;;
24555;SDS011;12725;49.440;10.954;2023-05-10T05:00:51;0.88;;;0.65;;
24555;SDS011;12725;49.440;10.954;2023-05-10T05:04:52;0.93;;;0.93;;
24555;SDS011;12725;49.440;10.954;2023-05-10T05:08:52;2.40;;;0.80;;
24555;SDS011;12725;49.440;10.954;2023-05-10T05:12:52;0.40;;;0.40;;
24555;SDS011;12725;49.440;10.954;2023-05-10T05:16:53;2.20;;;0.97;;
24555;SDS011;12725;49.440;10.954;2023-05-10T05:20:53;3.08;;;0.93;;
24555;SDS011;12725;49.440;10.954;2023-05-10T05:24:54;1.13;;;0.88;;
24555;SDS011;12725;49.440;10.954;2023-05-10T05:28:56;1.25;;;0.80;;
24555;SDS011;12725;49.440;10.954;2023-05-10T05:32:56;0.50;;;0.50;;
24555;SDS011;12725;49.440;10.954;2023-05-10T05:36:57;1.07;;;0.77;;
24555;SDS011;12725;49.440;10.954;2023-05-10T05:40:57;0.53;;;0.53;;
24555;SDS011;12725;49.440;10.954;2023-05-10T05:44:58;0.75;;;0.75;;
24555;SDS011;12725;49.440;10.954;2023-05-10T05:48:58;1.00;;;0.95;;
24555;SDS011;12725;49.440;10.954;2023-05-10T05:52:59;0.77;;;0.77;;
24555;SDS011;12725;49.440;10.954;2023-05-10T05:57:00;0.65;;;0.57;;
24555;SDS011;12725;49.440;10.954;2023-05-10T06:01:00;0.77;;;0.60;;
24555;SDS011;12725;49.440;10.954;2023-05-10T06:05:01;0.60;;;0.60;;
24555;SDS011;12725;49.440;10.954;2023-05-10T06:09:01;0.60;;;0.60;;
24555;SDS011;12725;49.440;10.954;2023-05-10T06:13:02;0.70;;;0.70;;
24555;SDS011;12725;49.440;10.954;2023-05-10T06:17:03;6.10;;;1.40;;
24555;SDS011;12725;49.440;10.954;2023-05-10T06:21:08;0.73;;;0.73;;
24555;SDS011;12725;49.440;10.954;2023-05-10T06:25:08;0.80;;;0.80;;
24555;SDS011;12725;49.440;10.954;2023-05-10T06:29:09;1.10;;;1.00;;
24555;SDS011;12725;49.440;10.954;2023-05-10T06:33:10;0.83;;;0.83;;
24555;SDS011;12725;49.440;10.954;2023-05-10T06:37:10;0.90;;;0.90;;
24555;SDS011;12725;49.440;10.954;2023-05-10T06:41:11;1.30;;;1.20;;
24555;SDS011;12725;49.440;10.954;2023-05-10T06:45:12;1.05;;;0.95;;
24555;SDS011;12725;49.440;10.954;2023-05-10T06:49:13;0.90;;;0.80;;
24555;SDS011;12725;49.440;10.954;2023-05-10T06:53:13;0.80;;;0.80;;
24555;SDS011;12725;49.440;10.954;2023-05-10T06:57:14;0.90;;;0.90;;
24555;SDS011;12725;49.440;10.954;2023-05-10T07:01:15;1.45;;;0.80;;
24555;SDS011;12725;49.440;10.954;2023-05-10T07:05:16;0.88;;;0.88;;
24555;SDS011;12725;49.440;10.954;2023-05-10T07:09:18;1.98;;;1.10;;
24555;SDS011;12725;49.440;10.954;2023-05-10T07:13:19;1.00;;;0.93;;
24555;SDS011;12725;49.440;10.954;2023-05-10T07:17:20;0.95;;;0.75;;
24555;SDS011;12725;49.440;10.954;2023-05-10T07:21:20;1.20;;;0.88;;
24555;SDS011;12725;49.440;10.954;2023-05-10T07:25:21;1.17;;;0.82;;
24555;SDS011;12725;49.440;10.954;2023-05-10T07:29:21;0.97;;;0.70;;
24555;SDS011;12725;49.440;10.954;2023-05-10T07:33:21;1.00;;;0.90;;
24555;SDS011;12725;49.440;10.954;2023-05-10T07:37:22;1.00;;;0.80;;
24555;SDS011;12725;49.440;10.954;2023-05-10T07:41:22;1.13;;;0.90;;
24555;SDS011;12725;49.440;10.954;2023-05-10T07:45:23;0.85;;;0.85;;
24555;SDS011;12725;49.440;10.954;2023-05-10T07:49:23;0.57;;;0.57;;
24555;SDS011;12725;49.440;10.954;2023-05-10T07:53:26;0.73;;;0.73;;
24555;SDS011;12725;49.440;10.954;2023-05-10T07:57:27;0.93;;;0.88;;
24555;SDS011;12725;49.440;10.954;2023-05-10T08:01:29;0.90;;;0.90;;
24555;SDS011;12725;49.440;10.954;2023-05-10T08:05:31;0.82;;;0.82;;
24555;SDS011;12725;49.440;10.954;2023-05-10T08:09:31;0.83;;;0.83;;
24555;SDS011;12725;49.440;10.954;2023-05-10T08:13:31;1.03;;;0.93;;
24555;SDS011;12725;49.440;10.954;2023-05-10T08:17:32;1.75;;;1.42;;
24555;SDS011;12725;49.440;10.954;2023-05-10T08:21:32;1.00;;;0.90;;
24555;SDS011;12725;49.440;10.954;2023-05-10T08:25:32;1.33;;;1.23;;
24555;SDS011;12725;49.440;10.954;2023-05-10T08:29:33;3.63;;;1.23;;
24555;SDS011;12725;49.440;10.954;2023-05-10T08:33:34;0.80;;;0.80;;
24555;SDS011;12725;49.440;10.954;2023-05-10T08:37:34;1.20;;;1.10;;
24555;SDS011;12725;49.440;10.954;2023-05-10T08:41:34;1.05;;;0.98;;
24555;SDS011;12725;49.440;10.954;2023-05-10T08:45:37;1.20;;;1.10;;
24555;SDS011;12725;49.440;10.954;2023-05-10T08:49:41;1.88;;;1.00;;
24555;SDS011;12725;49.440;10.954;2023-05-10T08:53:41;1.35;;;1.23;;
24555;SDS011;12725;49.440;10.954;2023-05-10T08:57:42;0.70;;;0.70;;
24555;SDS011;12725;49.440;10.954;2023-05-10T09:01:43;1.15;;;0.95;;
24555;SDS011;12725;49.440;10.954;2023-05-10T09:05:45;1.10;;;1.00;;
24555;SDS011;12725;49.440;10.954;2023-05-10T09:09:46;1.58;;;1.48;;
24555;SDS011;12725;49.440;10.954;2023-05-10T09:13:48;1.95;;;1.33;;
24555;SDS011;12725;49.440;10.954;2023-05-10T09:17:48;2.55;;;1.60;;
24555;SDS011;12725;49.440;10.954;2023-05-10T09:21:49;1.30;;;1.20;;
24555;SDS011;12725;49.440;10.954;2023-05-10T09:26:01;1.55;;;1.30;;
24555;SDS011;12725;49.440;10.954;2023-05-10T09:30:04;1.30;;;1.20;;
24555;SDS011;12725;49.440;10.954;2023-05-10T09:34:05;5.05;;;1.48;;
24555;SDS011;12725;49.440;10.954;2023-05-10T09:38:06;0.90;;;0.90;;
24555;SDS011;12725;49.440;10.954;2023-05-10T09:42:07;1.65;;;1.35;;
24555;SDS011;12725;49.440;10.954;2023-05-10T09:46:09;0.82;;;0.82;;
24555;SDS011;12725;49.440;10.954;2023-05-10T09:50:11;0.85;;;0.85;;
24555;SDS011;12725;49.440;10.954;2023-05-10T09:54:15;0.90;;;0.80;;
24555;SDS011;12725;49.440;10.954;2023-05-10T09:58:16;1.40;;;1.30;;
24555;SDS011;12725;49.440;10.954;2023-05-10T10:02:19;0.80;;;0.80;;
24555;SDS011;12725;49.440;10.954;2023-05-10T10:06:19;1.25;;;1.13;;
24555;SDS011;12725;49.440;10.954;2023-05-10T10:10:20;0.85;;;0.75;;
24555;SDS011;12725;49.440;10.954;2023-05-10T10:14:21;3.28;;;1.05;;
24555;SDS011;12725;49.440;10.954;2023-05-10T10:18:22;1.50;;;1.02;;
24555;SDS011;12725;49.440;10.954;2023-05-10T10:22:26;1.63;;;1.15;;
24555;SDS011;12725;49.440;10.954;2023-05-10T10:26:27;0.93;;;0.83;;
24555;SDS011;12725;49.440;10.954;2023-05-10T10:30:43;0.75;;;0.75;;
24555;SDS011;12725;49.440;10.954;2023-05-10T10:34:46;0.60;;;0.60;;
24555;SDS011;12725;49.440;10.954;2023-05-10T10:42:47;3.67;;;1.40;;
24555;SDS011;12725;49.440;10.954;2023-05-10T10:47:03;1.17;;;0.80;;
24555;SDS011;12725;49.440;10.954;2023-05-10T10:51:23;0.80;;;0.80;;
24555;SDS011;12725;49.440;10.954;2023-05-10T10:55:24;0.80;;;0.80;;
24555;SDS011;12725;49.440;10.954;2023-05-10T10:59:27;7.75;;;1.15;;
24555;SDS011;12725;49.440;10.954;2023-05-10T11:03:28;3.97;;;1.10;;
24555;SDS011;12725;49.440;10.954;2023-05-10T11:07:29;0.60;;;0.60;;
24555;SDS011;12725;49.440;10.954;2023-05-10T11:11:29;1.52;;;1.35;;
24555;SDS011;12725;49.440;10.954;2023-05-10T11:20:02;1.50;;;0.93;;
24555;SDS011;12725;49.440;10.954;2023-05-10T11:24:12;0.80;;;0.80;;
24555;SDS011;12725;49.440;10.954;2023-05-10T11:28:13;1.90;;;1.08;;
24555;SDS011;12725;49.440;10.954;2023-05-10T11:32:14;0.80;;;0.80;;
24555;SDS011;12725;49.440;10.954;2023-05-10T11:36:16;1.15;;;0.98;;
24555;SDS011;12725;49.440;10.954;2023-05-10T11:40:17;1.83;;;1.48;;
24555;SDS011;12725;49.440;10.954;2023-05-10T11:44:17;0.80;;;0.80;;
24555;SDS011;12725;49.440;10.954;2023-05-10T11:48:17;1.23;;;0.95;;
24555;SDS011;12725;49.440;10.954;2023-05-10T11:52:23;1.10;;;1.00;;
24555;SDS011;12725;49.440;10.954;2023-05-10T11:56:23;0.75;;;0.75;;
24555;SDS011;12725;49.440;10.954;2023-05-10T12:00:26;0.90;;;0.80;;
24555;SDS011;12725;49.440;10.954;2023-05-10T12:04:26;1.10;;;1.00;;
24555;SDS011;12725;49.440;10.954;2023-05-10T12:08:30;1.55;;;1.00;;
24555;SDS011;12725;49.440;10.954;2023-05-10T12:12:41;0.93;;;0.70;;
24555;SDS011;12725;49.440;10.954;2023-05-10T12:16:43;0.70;;;0.70;;
24555;SDS011;12725;49.440;10.954;2023-05-10T12:20:43;0.70;;;0.70;;
24555;SDS011;12725;49.440;10.954;2023-05-10T12:24:45;0.55;;;0.55;;
24555;SDS011;12725;49.440;10.954;2023-05-10T12:28:45;0.40;;;0.40;;
24555;SDS011;12725;49.440;10.954;2023-05-10T12:32:45;0.57;;;0.57;;
24555;SDS011;12725;49.440;10.954;2023-05-10T12:36:46;0.70;;;0.70;;
24555;SDS011;12725;49.440;10.954;2023-05-10T12:40:50;1.85;;;0.95;;
24555;SDS011;12725;49.440;10.954;2023-05-10T12:44:54;0.80;;;0.80;;
24555;SDS011;12725;49.440;10.954;2023-05-10T12:48:57;0.55;;;0.55;;
24555;SDS011;12725;49.440;10.954;2023-05-10T12:52:57;0.73;;;0.73;;
24555;SDS011;12725;49.440;10.954;2023-05-10T12:56:59;1.42;;;0.90;;
24555;SDS011;12725;49.440;10.954;2023-05-10T13:00:59;0.90;;;0.90;;
24555;SDS011;12725;49.440;10.954;2023-05-10T13:05:00;2.70;;;0.98;;
24555;SDS011;12725;49.440;10.954;2023-05-10T13:09:01;0.60;;;0.60;;
24555;SDS011;12725;49.440;10.954;2023-05-10T13:13:02;1.90;;;0.68;;
24555;SDS011;12725;49.440;10.954;2023-05-10T13:17:03;0.57;;;0.57;;
24555;SDS011;12725;49.440;10.954;2023-05-10T13:21:03;0.83;;;0.83;;
24555;SDS011;12725;49.440;10.954;2023-05-10T13:25:05;0.73;;;0.73;;
24555;SDS011;12725;49.440;10.954;2023-05-10T13:29:05;0.70;;;0.70;;
24555;SDS011;12725;49.440;10.954;2023-05-10T13:33:06;1.13;;;0.60;;
24555;SDS011;12725;49.440;10.954;2023-05-10T13:37:06;0.73;;;0.70;;
24555;SDS011;12725;49.440;10.954;2023-05-10T13:41:07;5.07;;;1.13;;
24555;SDS011;12725;49.440;10.954;2023-05-10T13:45:07;0.70;;;0.70;;
24555;SDS011;12725;49.440;10.954;2023-05-10T13:49:08;0.50;;;0.50;;
24555;SDS011;12725;49.440;10.954;2023-05-10T13:53:09;1.27;;;0.60;;
24555;SDS011;12725;49.440;10.954;2023-05-10T13:57:09;0.93;;;0.93;;
24555;SDS011;12725;49.440;10.954;2023-05-10T14:01:11;0.57;;;0.57;;
24555;SDS011;12725;49.440;10.954;2023-05-10T14:05:12;0.60;;;0.60;;
24555;SDS011;12725;49.440;10.954;2023-05-10T14:09:12;1.07;;;0.87;;
24555;SDS011;12725;49.440;10.954;2023-05-10T14:13:12;2.40;;;0.93;;
24555;SDS011;12725;49.440;10.954;2023-05-10T14:17:13;0.70;;;0.70;;
24555;SDS011;12725;49.440;10.954;2023-05-10T14:21:13;2.92;;;0.80;;
24555;SDS011;12725;49.440;10.954;2023-05-10T14:25:14;0.67;;;0.67;;
24555;SDS011;12725;49.440;10.954;2023-05-10T14:29:14;4.55;;;1.10;;
24555;SDS011;12725;49.440;10.954;2023-05-10T14:33:14;1.43;;;0.80;;
24555;SDS011;12725;49.440;10.954;2023-05-10T14:37:15;0.88;;;0.88;;
24555;SDS011;12725;49.440;10.954;2023-05-10T14:41:16;0.65;;;0.65;;
24555;SDS011;12725;49.440;10.954;2023-05-10T14:45:17;1.85;;;0.82;;
24555;SDS011;12725;49.440;10.954;2023-05-10T14:49:18;0.82;;;0.80;;
24555;SDS011;12725;49.440;10.954;2023-05-10T14:53:19;0.75;;;0.75;;
24555;SDS011;12725;49.440;10.954;2023-05-10T14:57:19;1.63;;;0.82;;
24555;SDS011;12725;49.440;10.954;2023-05-10T15:01:20;1.10;;;0.88;;
24555;SDS011;12725;49.440;10.954;2023-05-10T15:05:20;0.60;;;0.60;;
24555;SDS011;12725;49.440;10.954;2023-05-10T15:09:21;0.65;;;0.65;;
24555;SDS011;12725;49.440;10.954;2023-05-10T15:13:21;1.47;;;0.70;;
24555;SDS011;12725;49.440;10.954;2023-05-10T15:17:21;0.63;;;0.50;;
24555;SDS011;12725;49.440;10.954;2023-05-10T15:21:22;0.53;;;0.53;;
24555;SDS011;12725;49.440;10.954;2023-05-10T15:25:22;1.13;;;0.68;;
24555;SDS011;12725;49.440;10.954;2023-05-10T15:29:23;0.70;;;0.70;;
24555;SDS011;12725;49.440;10.954;2023-05-10T15:33:24;0.50;;;0.50;;
24555;SDS011;12725;49.440;10.954;2023-05-10T15:37:24;0.95;;;0.80;;
24555;SDS011;12725;49.440;10.954;2023-05-10T15:41:25;0.63;;;0.60;;
24555;SDS011;12725;49.440;10.954;2023-05-10T15:45:25;0.45;;;0.43;;
24555;SDS011;12725;49.440;10.954;2023-05-10T15:49:26;0.60;;;0.60;;
24555;SDS011;12725;49.440;10.954;2023-05-10T15:53:26;0.50;;;0.50;;
24555;SDS011;12725;49.440;10.954;2023-05-10T15:57:27;0.40;;;0.40;;
24555;SDS011;12725;49.440;10.954;2023-05-10T16:01:27;1.13;;;0.80;;
24555;SDS011;12725;49.440;10.954;2023-05-10T16:05:28;0.70;;;0.70;;
24555;SDS011;12725;49.440;10.954;2023-05-10T16:09:31;1.98;;;1.30;;
24555;SDS011;12725;49.440;10.954;2023-05-10T16:13:31;0.70;;;0.70;;
24555;SDS011;12725;49.440;10.954;2023-05-10T16:17:32;1.00;;;0.90;;
24555;SDS011;12725;49.440;10.954;2023-05-10T16:21:32;1.67;;;1.10;;
24555;SDS011;12725;49.440;10.954;2023-05-10T16:25:32;1.07;;;0.97;;
24555;SDS011;12725;49.440;10.954;2023-05-10T16:29:33;1.67;;;1.15;;
24555;SDS011;12725;49.440;10.954;2023-05-10T16:33:33;0.95;;;0.95;;
24555;SDS011;12725;49.440;10.954;2023-05-10T16:37:34;0.85;;;0.82;;
24555;SDS011;12725;49.440;10.954;2023-05-10T16:41:34;0.80;;;0.80;;
24555;SDS011;12725;49.440;10.954;2023-05-10T16:45:35;1.10;;;0.77;;
24555;SDS011;12725;49.440;10.954;2023-05-10T16:49:35;0.50;;;0.50;;
24555;SDS011;12725;49.440;10.954;2023-05-10T16:53:36;1.00;;;0.90;;
24555;SDS011;12725;49.440;10.954;2023-05-10T16:57:36;2.55;;;1.85;;
24555;SDS011;12725;49.440;10.954;2023-05-10T17:01:37;1.40;;;1.23;;
24555;SDS011;12725;49.440;10.954;2023-05-10T17:05:37;0.70;;;0.70;;
24555;SDS011;12725;49.440;10.954;2023-05-10T17:09:42;1.35;;;0.98;;
24555;SDS011;12725;49.440;10.954;2023-05-10T17:13:43;0.80;;;0.73;;
24555;SDS011;12725;49.440;10.954;2023-05-10T17:17:43;4.10;;;0.67;;
24555;SDS011;12725;49.440;10.954;2023-05-10T17:21:44;6.57;;;0.80;;
24555;SDS011;12725;49.440;10.954;2023-05-10T17:25:44;0.85;;;0.85;;
24555;SDS011;12725;49.440;10.954;2023-05-10T17:29:45;0.93;;;0.85;;
24555;SDS011;12725;49.440;10.954;2023-05-10T17:33:45;2.00;;;0.65;;
24555;SDS011;12725;49.440;10.954;2023-05-10T17:37:45;3.45;;;1.02;;
24555;SDS011;12725;49.440;10.954;2023-05-10T17:41:46;0.77;;;0.77;;
24555;SDS011;12725;49.440;10.954;2023-05-10T17:45:48;0.70;;;0.70;;
24555;SDS011;12725;49.440;10.954;2023-05-10T17:53:58;2.15;;;0.90;;
24555;SDS011;12725;49.440;10.954;2023-05-10T17:57:59;1.92;;;1.00;;
24555;SDS011;12725;49.440;10.954;2023-05-10T18:02:00;0.90;;;0.90;;
24555;SDS011;12725;49.440;10.954;2023-05-10T18:06:01;1.52;;;1.05;;
24555;SDS011;12725;49.440;10.954;2023-05-10T18:10:02;1.08;;;0.90;;
24555;SDS011;12725;49.440;10.954;2023-05-10T18:14:02;1.23;;;1.05;;
24555;SDS011;12725;49.440;10.954;2023-05-10T18:18:03;1.20;;;1.00;;
24555;SDS011;12725;49.440;10.954;2023-05-10T18:22:04;1.83;;;1.17;;
24555;SDS011;12725;49.440;10.954;2023-05-10T18:26:06;2.35;;;1.23;;
24555;SDS011;12725;49.440;10.954;2023-05-10T18:30:07;2.22;;;1.02;;
24555;SDS011;12725;49.440;10.954;2023-05-10T18:34:09;1.00;;;0.88;;
24555;SDS011;12725;49.440;10.954;2023-05-10T18:38:09;1.75;;;1.35;;
24555;SDS011;12725;49.440;10.954;2023-05-10T18:42:10;1.00;;;0.90;;
24555;SDS011;12725;49.440;10.954;2023-05-10T18:46:10;3.30;;;1.40;;
24555;SDS011;12725;49.440;10.954;2023-05-10T18:50:10;2.47;;;1.20;;
24555;SDS011;12725;49.440;10.954;2023-05-10T18:54:12;1.23;;;1.05;;
24555;SDS011;12725;49.440;10.954;2023-05-10T18:58:13;0.80;;;0.80;;
24555;SDS011;12725;49.440;10.954;2023-05-10T19:02:14;1.05;;;0.98;;
24555;SDS011;12725;49.440;10.954;2023-05-10T19:06:14;1.25;;;1.08;;
24555;SDS011;12725;49.440;10.954;2023-05-10T19:10:14;1.00;;;0.90;;
24555;SDS011;12725;49.440;10.954;2023-05-10T19:14:15;0.73;;;0.70;;
24555;SDS011;12725;49.440;10.954;2023-05-10T19:18:15;0.93;;;0.88;;
24555;SDS011;12725;49.440;10.954;2023-05-10T19:22:16;12.05;;;1.42;;
24555;SDS011;12725;49.440;10.954;2023-05-10T19:26:16;2.33;;;1.57;;
24555;SDS011;12725;49.440;10.954;2023-05-10T19:30:17;3.67;;;1.25;;
24555;SDS011;12725;49.440;10.954;2023-05-10T19:34:18;1.45;;;1.35;;
24555;SDS011;12725;49.440;10.954;2023-05-10T19:38:22;2.05;;;1.52;;
24555;SDS011;12725;49.440;10.954;2023-05-10T19:42:23;2.45;;;1.27;;
24555;SDS011;12725;49.440;10.954;2023-05-10T19:46:24;1.05;;;0.98;;
24555;SDS011;12725;49.440;10.954;2023-05-10T19:50:24;1.58;;;1.27;;
24555;SDS011;12725;49.440;10.954;2023-05-10T19:54:25;1.20;;;1.00;;
24555;SDS011;12725;49.440;10.954;2023-05-10T19:58:25;1.38;;;1.27;;
24555;SDS011;12725;49.440;10.954;2023-05-10T20:02:27;1.30;;;1.20;;
24555;SDS011;12725;49.440;10.954;2023-05-10T20:06:31;3.10;;;2.10;;
24555;SDS011;12725;49.440;10.954;2023-05-10T20:10:32;2.50;;;1.70;;
24555;SDS011;12725;49.440;10.954;2023-05-10T20:14:32;1.65;;;1.40;;
24555;SDS011;12725;49.440;10.954;2023-05-10T20:18:32;2.22;;;1.52;;
24555;SDS011;12725;49.440;10.954;2023-05-10T20:22:33;2.28;;;1.30;;
24555;SDS011;12725;49.440;10.954;2023-05-10T20:26:33;1.63;;;1.52;;
24555;SDS011;12725;49.440;10.954;2023-05-10T20:30:34;1.42;;;1.23;;
24555;SDS011;12725;49.440;10.954;2023-05-10T20:34:35;2.40;;;1.48;;
24555;SDS011;12725;49.440;10.954;2023-05-10T20:38:35;4.35;;;1.48;;
24555;SDS011;12725;49.440;10.954;2023-05-10T20:42:35;2.92;;;1.15;;
24555;SDS011;12725;49.440;10.954;2023-05-10T20:46:37;1.50;;;1.40;;
24555;SDS011;12725;49.440;10.954;2023-05-10T20:50:37;1.75;;;1.35;;
24555;SDS011;12725;49.440;10.954;2023-05-10T20:54:38;1.67;;;1.30;;
24555;SDS011;12725;49.440;10.954;2023-05-10T20:58:38;1.92;;;1.60;;
24555;SDS011;12725;49.440;10.954;2023-05-10T21:02:43;1.70;;;1.42;;
24555;SDS011;12725;49.440;10.954;2023-05-10T21:06:44;1.33;;;1.25;;
24555;SDS011;12725;49.440;10.954;2023-05-10T21:10:44;2.10;;;1.45;;
24555;SDS011;12725;49.440;10.954;2023-05-10T21:14:45;1.25;;;1.10;;
24555;SDS011;12725;49.440;10.954;2023-05-10T21:18:46;1.58;;;1.30;;
24555;SDS011;12725;49.440;10.954;2023-05-10T21:22:47;3.13;;;1.92;;
24555;SDS011;12725;49.440;10.954;2023-05-10T21:26:48;2.03;;;1.38;;
24555;SDS011;12725;49.440;10.954;2023-05-10T21:30:48;6.30;;;1.70;;
24555;SDS011;12725;49.440;10.954;2023-05-10T21:34:49;2.47;;;1.60;;
24555;SDS011;12725;49.440;10.954;2023-05-10T21:38:49;2.20;;;1.50;;
24555;SDS011;12725;49.440;10.954;2023-05-10T21:42:50;1.85;;;1.65;;
24555;SDS011;12725;49.440;10.954;2023-05-10T21:46:51;1.50;;;1.40;;
24555;SDS011;12725;49.440;10.954;2023-05-10T21:50:52;2.25;;;1.90;;
24555;SDS011;12725;49.440;10.954;2023-05-10T21:54:52;1.80;;;1.48;;
24555;SDS011;12725;49.440;10.954;2023-05-10T21:58:52;1.58;;;1.40;;
24555;SDS011;12725;49.440;10.954;2023-05-10T22:02:53;5.15;;;1.92;;
24555;SDS011;12725;49.440;10.954;2023-05-10T22:06:53;1.67;;;1.58;;
24555;SDS011;12725;49.440;10.954;2023-05-10T22:10:54;2.10;;;1.90;;
24555;SDS011;12725;49.440;10.954;2023-05-10T22:14:54;2.83;;;1.92;;
24555;SDS011;12725;49.440;10.954;2023-05-10T22:18:55;1.88;;;1.52;;
24555;SDS011;12725;49.440;10.954;2023-05-10T22:22:55;3.35;;;2.90;;
24555;SDS011;12725;49.440;10.954;2023-05-10T22:26:56;8.80;;;1.42;;
24555;SDS011;12725;49.440;10.954;2023-05-10T22:30:56;2.55;;;1.58;;
24555;SDS011;12725;49.440;10.954;2023-05-10T22:34:56;1.63;;;1.42;;
24555;SDS011;12725;49.440;10.954;2023-05-10T22:38:57;3.10;;;2.00;;
24555;SDS011;12725;49.440;10.954;2023-05-10T22:42:59;1.33;;;1.23;;
24555;SDS011;12725;49.440;10.954;2023-05-10T22:46:59;2.05;;;1.70;;
24555;SDS011;12725;49.440;10.954;2023-05-10T22:51:00;6.95;;;2.35;;
24555;SDS011;12725;49.440;10.954;2023-05-10T22:55:00;1.85;;;1.70;;
24555;SDS011;12725;49.440;10.954;2023-05-10T22:59:01;2.20;;;1.35;;
24555;SDS011;12725;49.440;10.954;2023-05-10T23:03:01;1.63;;;1.52;;
24555;SDS011;12725;49.440;10.954;2023-05-10T23:07:01;1.77;;;1.63;;
24555;SDS011;12725;49.440;10.954;2023-05-10T23:11:03;2.07;;;1.70;;
24555;SDS011;12725;49.440;10.954;2023-05-10T23:15:03;1.40;;;1.30;;
24555;SDS011;12725;49.440;10.954;2023-05-10T23:19:05;2.47;;;1.85;;
24555;SDS011;12725;49.440;10.954;2023-05-10T23:23:06;1.75;;;1.50;;
24555;SDS011;12725;49.440;10.954;2023-05-10T23:27:06;1.50;;;1.40;;
24555;SDS011;12725;49.440;10.954;2023-05-10T23:31:06;1.98;;;1.80;;
24555;SDS011;12725;49.440;10.954;2023-05-10T23:35:07;2.37;;;1.73;;
24555;SDS011;12725;49.440;10.954;2023-05-10T23:39:07;1.73;;;1.38;;
24555;SDS011;12725;49.440;10.954;2023-05-10T23:43:08;9.50;;;1.60;;
24555;SDS011;12725;49.440;10.954;2023-05-10T23:47:08;3.67;;;1.80;;
24555;SDS011;12725;49.440;10.954;2023-05-10T23:51:08;2.00;;;1.80;;
24555;SDS011;12725;49.440;10.954;2023-05-10T23:55:09;3.07;;;2.20;;
24555;SDS011;12725;49.440;10.954;2023-05-10T23:59:09;2.67;;;2.00;;
